Terminal Aerodrome Forecast
Issued by NWS Wakefield, VA

Home | Current Version | Previous Version | Text Only | Print | Product List | Glossary On
Versions: 1 2 3 4 5 6 7 8 9 10 11 12 13 14 15 16 17 18 19 20
684
FTUS41 KAKQ 092322
TAFSBY
TAF
KSBY 092322Z 1000/1024 30009KT P6SM SCT015 BKN100
      TEMPO 1000/1003 BKN025
     FM100400 30008KT P6SM BKN040
     FM101400 27012G20KT P6SM BKN050=

USA.gov is the U.S. government's official web portal to all federal, state and local government web resources and services.